Terminal Aerodrome Forecast
Issued by NWS

Home | Current Version | Previous Version | Text Only | Print | Product List | Glossary On
Versions: 1 2 3 4 5 6 7 8 9 10 11 12
000
FTUS42 TJSJ 240500 RRA
TAFKPK
TAF
TKPK 240544Z 2406/2506 07013KT P6SM VCSH SCT019
     FM241000 07015G25KT P6SM VCTS BKN018CB
     FM241600 07015G25KT P6SM SHRA BKN015 BKN030
      AMD NOT SKED TIL 241100=

USA.gov is the U.S. government's official web portal to all federal, state and local government web resources and services.